Celebrity Century — 9HJI9 — position and weather

sailwx.info

Track history (hours):
 
Tides and Currents Weather Stations Pressure Air Temp Water Temp Dewpoint Dewpoint Depression Visibility Wind Speed Wind Dir Waves Ship Positions

Celebrity Century

Last reported at 2017-Aug-19 16:03 UTC. Time now 2017-Aug-20 15:38 UTC.
Position N 31°10' E 123°29'.

Length 252 m; draft 8 m.

Type: Passenger vessel. MMSI: 249054000.

Date/timePositionNaut miles runAvg speedWind from/ knotsBaromVisibWave heightAir tempDewpointWater temp
2017-Aug-19 16:03N 31°10' E 123°29'115.3
2017-Aug-19 16:00N 31°10' E 123°28'714.5
2017-Aug-19 15:30N 31°09' E 123°20'713.5
2017-Aug-19 15:00N 31°08' E 123°12'1515.0
2017-Aug-19 14:00N 31°07' E 122°54'816.0
2017-Aug-19 13:30N 31°06' E 122°45'815.2
2017-Aug-19 12:59N 31°05' E 122°36'612.1
2017-Aug-19 12:30N 31°05' E 122°29'5 9.7
2017-Aug-19 11:57N 31°06' E 122°23'612.2
2017-Aug-19 11:27N 31°07' E 122°16'512.2
2017-Aug-19 11:00N 31°10' E 122°11'713.2
2017-Aug-19 10:30N 31°14' E 122°04'714.4
2017-Aug-19 10:00N 31°15' E 121°56'714.8
2017-Aug-19 09:30N 31°18' E 121°48'612.8
2017-Aug-19 09:00N 31°20' E 121°41'611.9
2017-Aug-19 08:30N 31°23' E 121°35'4 9.0
2017-Aug-19 08:00N 31°25' E 121°30'0 0.0
2017-Aug-19 07:29N 31°25' E 121°30'0 0.1
2017-Aug-19 06:57N 31°25' E 121°30'0 0.0
2017-Aug-18 22:48N 31°25' E 121°30'0 0.0
2017-Aug-18 22:30N 31°25' E 121°30'1 2.7
2017-Aug-18 22:00N 31°24' E 121°32'5 9.7
2017-Aug-18 21:30N 31°22' E 121°37'510.2
2017-Aug-18 21:00N 31°20' E 121°42'612.6
2017-Aug-18 20:30N 31°17' E 121°49'612.2
2017-Aug-18 20:00N 31°16' E 121°56'611.1
2017-Aug-18 19:30N 31°15' E 122°02'510.9
2017-Aug-18 19:00N 31°13' E 122°08'611.6
2017-Aug-18 18:30N 31°09' E 122°13'612.4
2017-Aug-18 18:01N 31°06' E 122°20'611.2
2017-Aug-18 17:31N 31°07' E 122°26'510.1
2017-Aug-18 17:00N 31°07' E 122°32'611.8
2017-Aug-18 16:31N 31°07' E 122°39'612.0
2017-Aug-18 16:01N 31°07' E 122°46'612.0
2017-Aug-18 15:30N 31°07' E 122°53'612.9
2017-Aug-18 15:00N 31°08' E 123°00'1012.1
2017-Aug-18 14:11N 31°10' E 123°12'811.3
2017-Aug-18 13:30N 31°14' E 123°20'1011.5
2017-Aug-18 12:40N 31°12' E 123°31'212.3
2017-Aug-18 12:30N 31°11' E 123°33'  
2017-Aug-15 12:55N 31°06' E 122°37'715.9
2017-Aug-15 12:30N 31°06' E 122°30'611.2
2017-Aug-15 12:00N 31°06' E 122°23'714.1
2017-Aug-15 11:30N 31°08' E 122°15'714.3
2017-Aug-15 11:00N 31°12' E 122°09'612.5
2017-Aug-15 10:30N 31°14' E 122°02'612.4
2017-Aug-15 10:00N 31°16' E 121°55'713.2
2017-Aug-15 09:31N 31°18' E 121°47'713.0
2017-Aug-15 09:01N 31°20' E 121°40'611.7
2017-Aug-15 08:31N 31°23' E 121°35'4 7.7
2017-Aug-15 08:01N 31°25' E 121°30'41 7.2
2017-Aug-15 02:19N 31°09' E 122°14'4118.4
2017-Aug-15 00:07N 31°25' E 121°30'0 0.3
2017-Aug-14 23:55N 31°25' E 121°30'0 0.0
2017-Aug-14 23:26N 31°25' E 121°30'1 3.3
2017-Aug-14 23:00N 31°24' E 121°32'611.8
2017-Aug-14 22:30N 31°22' E 121°38'611.2
2017-Aug-14 22:00N 31°19' E 121°44'510.6
2017-Aug-14 21:30N 31°17' E 121°50'511.0
2017-Aug-14 21:00N 31°16' E 121°56'510.6
2017-Aug-14 20:30N 31°15' E 122°02'510.2
2017-Aug-14 20:00N 31°13' E 122°07'510.4
2017-Aug-14 19:30N 31°10' E 122°12'612.9
2017-Aug-14 19:00N 31°06' E 122°19'612.7
2017-Aug-14 18:30N 31°07' E 122°26'713.5
2017-Aug-14 18:00N 31°07' E 122°34'816.1
2017-Aug-14 17:29N 31°07' E 122°44'815.9
2017-Aug-14 17:00N 31°08' E 122°53'1215.9
2017-Aug-14 16:17N 31°12' E 123°05'916.2
2017-Aug-14 15:45N 31°15' E 123°14'416.4
2017-Aug-14 15:30N 31°17' E 123°19'1216.4
2017-Aug-14 14:46N 31°22' E 123°32'616.3
2017-Aug-14 14:24N 31°24' E 123°38'716.6
2017-Aug-14 13:59N 31°28' E 123°45'  
2017-Aug-11 17:01N 31°24' E 123°34'113.9
2017-Aug-11 16:56N 31°24' E 123°33'614.5
2017-Aug-11 16:30N 31°21' E 123°27'714.1
2017-Aug-11 16:00N 31°18' E 123°19'714.1
2017-Aug-11 15:28N 31°15' E 123°11'613.5
2017-Aug-11 15:00N 31°14' E 123°03'1413.8
2017-Aug-11 14:00N 31°10' E 122°48'713.7
2017-Aug-11 13:30N 31°06' E 122°42'713.1
2017-Aug-11 13:00N 31°04' E 122°34'612.7
2017-Aug-11 12:31N 31°06' E 122°27'5 9.9
2017-Aug-11 12:00N 31°06' E 122°21'611.4
2017-Aug-11 11:30N 31°08' E 122°15'714.6
2017-Aug-11 11:01N 31°12' E 122°08'713.7
2017-Aug-11 10:30N 31°15' E 122°01'714.9
2017-Aug-11 10:00N 31°16' E 121°52'815.1
2017-Aug-11 09:30N 31°19' E 121°44'611.6
2017-Aug-11 09:00N 31°22' E 121°38'611.3
2017-Aug-11 08:30N 31°24' E 121°32'2 3.3
2017-Aug-11 08:00N 31°25' E 121°30'0 0.0
2017-Aug-11 07:30N 31°25' E 121°30'0 0.0
2017-Aug-11 07:00N 31°25' E 121°30'0 0.0
2017-Aug-11 06:30N 31°25' E 121°30'0 0.0
2017-Aug-11 06:00N 31°25' E 121°30'0 0.0
2017-Aug-11 00:41N 31°25' E 121°30'0 0.0
2017-Aug-11 00:05N 31°25' E 121°30'0 0.0
2017-Aug-10 22:44N 31°25' E 121°30'0 0.0
2017-Aug-10 22:30N 31°25' E 121°30'1 1.5
2017-Aug-10 22:00N 31°25' E 121°31'5 9.6
2017-Aug-10 21:31N 31°23' E 121°36'612.0
2017-Aug-10 21:01N 31°20' E 121°42'612.2
2017-Aug-10 20:31N 31°17' E 121°49'612.7
2017-Aug-10 20:01N 31°15' E 121°56'612.1
2017-Aug-10 19:30N 31°14' E 122°03'510.0
2017-Aug-10 19:00N 31°12' E 122°08'612.7
2017-Aug-10 18:30N 31°09' E 122°14'612.8
2017-Aug-10 18:00N 31°06' E 122°21'510.8
2017-Aug-10 17:30N 31°07' E 122°27'611.1
2017-Aug-10 17:00N 31°07' E 122°34'917.1
2017-Aug-10 16:29N 31°06' E 122°44'816.8
2017-Aug-10 16:00N 31°08' E 122°54'815.3
2017-Aug-10 15:29N 31°10' E 123°02'  
Track history (hours):
 
Tides and Currents Weather Stations Pressure Air Temp Water Temp Dewpoint Dewpoint Depression Visibility Wind Speed Wind Dir Waves Ship Positions

Celebrity Century

Last reported at 2017-Aug-19 16:03 UTC. Time now 2017-Aug-20 15:38 UTC.
Position N 31°10' E 123°29'.

Length 252 m; draft 8 m.

Type: Passenger vessel. MMSI: 249054000.

Date/timePositionNaut miles runAvg speedWind from/ knotsBaromVisibWave heightAir tempDewpointWater temp
2017-Aug-19 16:03N 31°10' E 123°29'115.3
2017-Aug-19 16:00N 31°10' E 123°28'714.5
2017-Aug-19 15:30N 31°09' E 123°20'713.5
2017-Aug-19 15:00N 31°08' E 123°12'1515.0
2017-Aug-19 14:00N 31°07' E 122°54'816.0
2017-Aug-19 13:30N 31°06' E 122°45'815.2
2017-Aug-19 12:59N 31°05' E 122°36'612.1
2017-Aug-19 12:30N 31°05' E 122°29'5 9.7
2017-Aug-19 11:57N 31°06' E 122°23'612.2
2017-Aug-19 11:27N 31°07' E 122°16'512.2
2017-Aug-19 11:00N 31°10' E 122°11'713.2
2017-Aug-19 10:30N 31°14' E 122°04'714.4
2017-Aug-19 10:00N 31°15' E 121°56'714.8
2017-Aug-19 09:30N 31°18' E 121°48'612.8
2017-Aug-19 09:00N 31°20' E 121°41'611.9
2017-Aug-19 08:30N 31°23' E 121°35'4 9.0
2017-Aug-19 08:00N 31°25' E 121°30'0 0.0
2017-Aug-19 07:29N 31°25' E 121°30'0 0.1
2017-Aug-19 06:57N 31°25' E 121°30'0 0.0
2017-Aug-18 22:48N 31°25' E 121°30'0 0.0
2017-Aug-18 22:30N 31°25' E 121°30'1 2.7
2017-Aug-18 22:00N 31°24' E 121°32'5 9.7
2017-Aug-18 21:30N 31°22' E 121°37'510.2
2017-Aug-18 21:00N 31°20' E 121°42'612.6
2017-Aug-18 20:30N 31°17' E 121°49'612.2
2017-Aug-18 20:00N 31°16' E 121°56'611.1
2017-Aug-18 19:30N 31°15' E 122°02'510.9
2017-Aug-18 19:00N 31°13' E 122°08'611.6
2017-Aug-18 18:30N 31°09' E 122°13'612.4
2017-Aug-18 18:01N 31°06' E 122°20'611.2
2017-Aug-18 17:31N 31°07' E 122°26'510.1
2017-Aug-18 17:00N 31°07' E 122°32'611.8
2017-Aug-18 16:31N 31°07' E 122°39'612.0
2017-Aug-18 16:01N 31°07' E 122°46'612.0
2017-Aug-18 15:30N 31°07' E 122°53'612.9
2017-Aug-18 15:00N 31°08' E 123°00'1012.1
2017-Aug-18 14:11N 31°10' E 123°12'811.3
2017-Aug-18 13:30N 31°14' E 123°20'1011.5
2017-Aug-18 12:40N 31°12' E 123°31'212.3
2017-Aug-18 12:30N 31°11' E 123°33'  
2017-Aug-15 12:55N 31°06' E 122°37'715.9
2017-Aug-15 12:30N 31°06' E 122°30'611.2
2017-Aug-15 12:00N 31°06' E 122°23'714.1
2017-Aug-15 11:30N 31°08' E 122°15'714.3
2017-Aug-15 11:00N 31°12' E 122°09'612.5
2017-Aug-15 10:30N 31°14' E 122°02'612.4
2017-Aug-15 10:00N 31°16' E 121°55'713.2
2017-Aug-15 09:31N 31°18' E 121°47'713.0
2017-Aug-15 09:01N 31°20' E 121°40'611.7
2017-Aug-15 08:31N 31°23' E 121°35'4 7.7
2017-Aug-15 08:01N 31°25' E 121°30'41 7.2
2017-Aug-15 02:19N 31°09' E 122°14'4118.4
2017-Aug-15 00:07N 31°25' E 121°30'0 0.3
2017-Aug-14 23:55N 31°25' E 121°30'0 0.0
2017-Aug-14 23:26N 31°25' E 121°30'1 3.3
2017-Aug-14 23:00N 31°24' E 121°32'611.8
2017-Aug-14 22:30N 31°22' E 121°38'611.2
2017-Aug-14 22:00N 31°19' E 121°44'510.6
2017-Aug-14 21:30N 31°17' E 121°50'511.0
2017-Aug-14 21:00N 31°16' E 121°56'510.6
2017-Aug-14 20:30N 31°15' E 122°02'510.2
2017-Aug-14 20:00N 31°13' E 122°07'510.4
2017-Aug-14 19:30N 31°10' E 122°12'612.9
2017-Aug-14 19:00N 31°06' E 122°19'612.7
2017-Aug-14 18:30N 31°07' E 122°26'713.5
2017-Aug-14 18:00N 31°07' E 122°34'816.1
2017-Aug-14 17:29N 31°07' E 122°44'815.9
2017-Aug-14 17:00N 31°08' E 122°53'1215.9
2017-Aug-14 16:17N 31°12' E 123°05'916.2
2017-Aug-14 15:45N 31°15' E 123°14'416.4
2017-Aug-14 15:30N 31°17' E 123°19'1216.4
2017-Aug-14 14:46N 31°22' E 123°32'616.3
2017-Aug-14 14:24N 31°24' E 123°38'716.6
2017-Aug-14 13:59N 31°28' E 123°45'  
2017-Aug-11 17:01N 31°24' E 123°34'113.9
2017-Aug-11 16:56N 31°24' E 123°33'614.5
2017-Aug-11 16:30N 31°21' E 123°27'714.1
2017-Aug-11 16:00N 31°18' E 123°19'714.1
2017-Aug-11 15:28N 31°15' E 123°11'613.5
2017-Aug-11 15:00N 31°14' E 123°03'1413.8
2017-Aug-11 14:00N 31°10' E 122°48'713.7
2017-Aug-11 13:30N 31°06' E 122°42'713.1
2017-Aug-11 13:00N 31°04' E 122°34'612.7
2017-Aug-11 12:31N 31°06' E 122°27'5 9.9
2017-Aug-11 12:00N 31°06' E 122°21'611.4
2017-Aug-11 11:30N 31°08' E 122°15'714.6
2017-Aug-11 11:01N 31°12' E 122°08'713.7
2017-Aug-11 10:30N 31°15' E 122°01'714.9
2017-Aug-11 10:00N 31°16' E 121°52'815.1
2017-Aug-11 09:30N 31°19' E 121°44'611.6
2017-Aug-11 09:00N 31°22' E 121°38'611.3
2017-Aug-11 08:30N 31°24' E 121°32'2 3.3
2017-Aug-11 08:00N 31°25' E 121°30'0 0.0
2017-Aug-11 07:30N 31°25' E 121°30'0 0.0
2017-Aug-11 07:00N 31°25' E 121°30'0 0.0
2017-Aug-11 06:30N 31°25' E 121°30'0 0.0
2017-Aug-11 06:00N 31°25' E 121°30'0 0.0
2017-Aug-11 00:41N 31°25' E 121°30'0 0.0
2017-Aug-11 00:05N 31°25' E 121°30'0 0.0
2017-Aug-10 22:44N 31°25' E 121°30'0 0.0
2017-Aug-10 22:30N 31°25' E 121°30'1 1.5
2017-Aug-10 22:00N 31°25' E 121°31'5 9.6
2017-Aug-10 21:31N 31°23' E 121°36'612.0
2017-Aug-10 21:01N 31°20' E 121°42'612.2
2017-Aug-10 20:31N 31°17' E 121°49'612.7
2017-Aug-10 20:01N 31°15' E 121°56'612.1
2017-Aug-10 19:30N 31°14' E 122°03'510.0
2017-Aug-10 19:00N 31°12' E 122°08'612.7
2017-Aug-10 18:30N 31°09' E 122°14'612.8
2017-Aug-10 18:00N 31°06' E 122°21'510.8
2017-Aug-10 17:30N 31°07' E 122°27'611.1
2017-Aug-10 17:00N 31°07' E 122°34'917.1
2017-Aug-10 16:29N 31°06' E 122°44'816.8
2017-Aug-10 16:00N 31°08' E 122°54'815.3
2017-Aug-10 15:29N 31°10' E 123°02'  

Dump ship's entire track history